Time;durP1;ratioP1;P1;durP2;ratioP2;P2;SDS_P1;SDS_P2;PMS_P1;PMS_P2;Temp;Humidity;BMP_temperature;BMP_pressure;BME280_temperature;BME280_humidity;BME280_pressure;Samples;Min_cycle;Max_cycle;Signal;HPM_P1;HPM_P2
2024/01/12 17:32:51;;;;;;;25.58;12.95;;;;;;;;;;7284658;19;20404;-79
2024/01/12 17:35:17;;;;;;;25.08;13.02;;;;;;;;;;7347628;19;20515;-80
2024/01/12 17:37:42;;;;;;;23.63;12.98;;;;;;;;;;7354445;19;20070;-80
2024/01/12 17:40:08;;;;;;;25.05;13.07;;;;;;;;;;7354348;19;20925;-82
2024/01/12 17:42:33;;;;;;;25.40;12.85;;;;;;;;;;7341433;19;20022;-80
2024/01/12 17:44:59;;;;;;;26.15;14.02;;;;;;;;;;7349438;19;20471;-85
2024/01/12 17:47:24;;;;;;;25.15;13.15;;;;;;;;;;7320763;19;21452;-81
2024/01/12 17:49:50;;;;;;;26.05;14.30;;;;;;;;;;7349223;19;20309;-81
2024/01/12 17:52:15;;;;;;;27.35;13.13;;;;;;;;;;7326685;19;20882;-81
2024/01/12 17:54:41;;;;;;;25.52;14.00;;;;;;;;;;7345658;19;20029;-81
2024/01/12 17:57:06;;;;;;;27.80;14.80;;;;;;;;;;7328834;19;20002;-78
2024/01/12 17:59:32;;;;;;;25.37;14.00;;;;;;;;;;7339114;19;20010;-79
2024/01/12 18:01:57;;;;;;;28.10;14.77;;;;;;;;;;7303207;19;20641;-80
2024/01/12 18:04:22;;;;;;;31.65;14.00;;;;;;;;;;7350093;19;20120;-81
2024/01/12 18:06:47;;;;;;;26.60;13.00;;;;;;;;;;7337854;19;20030;-79
2024/01/12 18:09:13;;;;;;;26.50;13.30;;;;;;;;;;7345846;19;20010;-79
2024/01/12 18:11:39;;;;;;;26.00;13.80;;;;;;;;;;7345817;19;20003;-82
2024/01/12 18:14:04;;;;;;;25.48;13.07;;;;;;;;;;7345500;19;20022;-78
2024/01/12 18:16:29;;;;;;;26.13;13.85;;;;;;;;;;7360558;19;20027;-82
2024/01/12 18:18:55;;;;;;;25.67;14.53;;;;;;;;;;7338050;19;20006;-79
2024/01/12 18:21:20;;;;;;;29.92;14.07;;;;;;;;;;7351756;19;20297;-79
2024/01/12 18:23:45;;;;;;;25.73;13.82;;;;;;;;;;7344562;19;20070;-76
2024/01/12 18:26:10;;;;;;;27.27;14.15;;;;;;;;;;7354398;19;20026;-82
2024/01/12 18:28:35;;;;;;;21.73;12.15;;;;;;;;;;7337325;19;20422;-80
2024/01/12 18:31:00;;;;;;;19.35;11.55;;;;;;;;;;7334464;19;20753;-84
2024/01/12 18:33:25;;;;;;;23.80;13.53;;;;;;;;;;7315932;19;20356;-76
2024/01/12 18:35:51;;;;;;;24.80;13.98;;;;;;;;;;7341913;19;20275;-81
2024/01/12 18:38:16;;;;;;;23.88;12.07;;;;;;;;;;7306946;19;20320;-81
2024/01/12 18:40:41;;;;;;;24.80;13.77;;;;;;;;;;7343324;19;20455;-80
2024/01/12 18:43:07;;;;;;;20.42;11.27;;;;;;;;;;7336077;19;20046;-82
2024/01/12 18:45:35;;;;;;;20.55;11.65;;;;;;;;;;7329903;19;20014;-82
2024/01/12 18:48:01;;;;;;;21.98;11.85;;;;;;;;;;7337820;19;20011;-81
2024/01/12 18:50:27;;;;;;;21.85;12.35;;;;;;;;;;7344046;19;20050;-79
2024/01/12 18:52:52;;;;;;;22.60;12.30;;;;;;;;;;7350832;19;20002;-77
2024/01/12 18:55:17;;;;;;;21.13;11.65;;;;;;;;;;7352790;19;20006;-78
2024/01/12 18:57:42;;;;;;;20.55;11.60;;;;;;;;;;7343715;19;20284;-77
2024/01/12 19:00:09;;;;;;;20.83;12.75;;;;;;;;;;7340911;19;20263;-82
2024/01/12 19:02:34;;;;;;;20.83;12.25;;;;;;;;;;7346251;19;20649;-77
2024/01/12 19:04:59;;;;;;;21.60;11.20;;;;;;;;;;7360327;19;20006;-80
2024/01/12 19:07:24;;;;;;;17.73;10.60;;;;;;;;;;7339755;19;20107;-81
2024/01/12 19:09:49;;;;;;;20.58;11.73;;;;;;;;;;7354546;19;20368;-81
2024/01/12 19:12:14;;;;;;;19.35;10.50;;;;;;;;;;7344696;19;20286;-77
2024/01/12 19:14:39;;;;;;;19.73;10.35;;;;;;;;;;7352745;19;20058;-79
2024/01/12 19:17:05;;;;;;;16.17;9.60;;;;;;;;;;7346162;19;20550;-74
2024/01/12 19:19:30;;;;;;;16.63;10.48;;;;;;;;;;7348109;19;20268;-77
2024/01/12 19:21:55;;;;;;;20.77;10.50;;;;;;;;;;7352502;19;20304;-80
2024/01/12 19:24:20;;;;;;;19.40;10.82;;;;;;;;;;7350307;19;20570;-74
2024/01/12 19:26:45;;;;;;;16.58;9.73;;;;;;;;;;7352610;19;20025;-77
2024/01/12 19:29:10;;;;;;;18.48;10.00;;;;;;;;;;7322265;19;20327;-80
2024/01/12 19:31:36;;;;;;;17.23;9.13;;;;;;;;;;7322362;19;20749;-77
2024/01/12 19:34:01;;;;;;;15.18;9.30;;;;;;;;;;7305257;19;20291;-79
2024/01/12 19:36:27;;;;;;;17.95;9.35;;;;;;;;;;7322546;19;20384;-83
2024/01/12 19:38:52;;;;;;;17.33;9.07;;;;;;;;;;7318020;19;20007;-81
2024/01/12 19:41:22;;;;;;;16.15;8.95;;;;;;;;;;7325697;19;20010;-81
2024/01/12 19:43:47;;;;;;;17.15;9.35;;;;;;;;;;7337460;19;20014;-80
2024/01/12 19:46:12;;;;;;;16.45;9.13;;;;;;;;;;7326738;19;22688;-79
2024/01/12 19:48:37;;;;;;;16.40;8.70;;;;;;;;;;7319360;19;20279;-78
2024/01/12 19:51:02;;;;;;;15.63;9.18;;;;;;;;;;7346118;19;20817;-82
2024/01/12 19:53:27;;;;;;;15.50;9.02;;;;;;;;;;7338884;19;20127;-84
2024/01/12 19:55:53;;;;;;;17.00;9.55;;;;;;;;;;7341411;19;20010;-79
2024/01/12 19:58:18;;;;;;;34.20;21.02;;;;;;;;;;7331676;19;20426;-80
2024/01/12 20:00:43;;;;;;;23.75;13.65;;;;;;;;;;7336995;19;20720;-83
2024/01/12 20:03:08;;;;;;;26.00;15.43;;;;;;;;;;7315628;19;20010;-83
2024/01/12 20:05:33;;;;;;;23.23;14.48;;;;;;;;;;7343461;19;20362;-82
2024/01/12 20:07:58;;;;;;;20.43;12.77;;;;;;;;;;7339086;19;20007;-80
2024/01/12 20:10:23;;;;;;;18.88;11.15;;;;;;;;;;7345726;19;20537;-84
2024/01/12 20:12:49;;;;;;;22.17;13.80;;;;;;;;;;7350677;19;20010;-80
2024/01/12 20:15:16;;;;;;;24.90;14.38;;;;;;;;;;7324690;19;22664;-84
2024/01/12 20:17:42;;;;;;;26.77;14.82;;;;;;;;;;7340370;19;20384;-79
2024/01/12 20:20:07;;;;;;;18.60;12.15;;;;;;;;;;7361353;19;20010;-80
2024/01/12 20:22:32;;;;;;;22.13;12.25;;;;;;;;;;7350377;19;20045;-81
2024/01/12 20:24:58;;;;;;;22.40;12.05;;;;;;;;;;7357693;19;20006;-81
2024/01/12 20:27:23;;;;;;;21.63;12.27;;;;;;;;;;7342289;19;20018;-81
2024/01/12 20:29:48;;;;;;;25.10;13.32;;;;;;;;;;7359401;19;20279;-77
2024/01/12 20:32:13;;;;;;;23.75;13.63;;;;;;;;;;7331396;19;20034;-78
2024/01/12 20:34:38;;;;;;;19.30;10.98;;;;;;;;;;7346137;19;20319;-78
2024/01/12 20:37:04;;;;;;;21.80;12.30;;;;;;;;;;7357946;19;20037;-78
2024/01/12 20:39:29;;;;;;;18.00;9.40;;;;;;;;;;7346021;19;20458;-77
2024/01/12 20:41:54;;;;;;;19.05;8.70;;;;;;;;;;7357352;19;20362;-79
2024/01/12 20:44:20;;;;;;;14.98;8.25;;;;;;;;;;7352020;19;20031;-80
2024/01/12 20:46:45;;;;;;;14.30;7.57;;;;;;;;;;7352113;19;20024;-77
2024/01/12 20:49:11;;;;;;;15.75;8.30;;;;;;;;;;7339784;19;20291;-78
2024/01/12 20:51:36;;;;;;;17.60;8.63;;;;;;;;;;7350729;19;20031;-81
2024/01/12 20:54:03;;;;;;;19.83;8.63;;;;;;;;;;7352327;19;20791;-80
2024/01/12 20:56:28;;;;;;;13.18;7.45;;;;;;;;;;7355281;19;20037;-81
2024/01/12 20:58:53;;;;;;;15.03;7.33;;;;;;;;;;7343838;19;20007;-79
2024/01/12 21:01:18;;;;;;;18.08;8.23;;;;;;;;;;7341946;19;20346;-81
2024/01/12 21:03:44;;;;;;;15.02;7.95;;;;;;;;;;7338680;19;20279;-78
2024/01/12 21:06:09;;;;;;;17.55;8.25;;;;;;;;;;7358328;19;20997;-79
2024/01/12 21:08:34;;;;;;;16.80;7.97;;;;;;;;;;7355107;19;20028;-78
2024/01/12 21:11:00;;;;;;;14.40;7.90;;;;;;;;;;7354771;19;20014;-80
2024/01/12 21:13:25;;;;;;;16.67;7.68;;;;;;;;;;7347710;19;20021;-80
2024/01/12 21:15:50;;;;;;;15.63;7.55;;;;;;;;;;7357123;19;20503;-78
2024/01/12 21:18:15;;;;;;;19.83;8.95;;;;;;;;;;7334606;19;20018;-77
2024/01/12 21:20:43;;;;;;;15.82;7.10;;;;;;;;;;7349782;19;20019;-80
2024/01/12 21:23:08;;;;;;;15.32;7.00;;;;;;;;;;7358660;19;20123;-80
2024/01/12 21:25:34;;;;;;;19.27;9.95;;;;;;;;;;7338841;19;20046;-82
2024/01/12 21:27:59;;;;;;;18.77;8.90;;;;;;;;;;7349569;19;20283;-79
2024/01/12 21:30:25;;;;;;;19.65;7.40;;;;;;;;;;7313382;19;20003;-83
2024/01/12 21:32:50;;;;;;;17.95;8.55;;;;;;;;;;7259557;19;20014;-79
2024/01/12 21:35:15;;;;;;;16.52;8.30;;;;;;;;;;7350720;19;20003;-83
2024/01/12 21:37:40;;;;;;;16.75;7.40;;;;;;;;;;7321049;19;20075;-80
2024/01/12 21:40:06;;;;;;;11.18;5.65;;;;;;;;;;7347802;19;20086;-79
2024/01/12 21:42:31;;;;;;;12.13;6.00;;;;;;;;;;7270498;19;20002;-80
2024/01/12 21:44:56;;;;;;;9.75;4.68;;;;;;;;;;7359118;19;20018;-79
2024/01/12 21:47:21;;;;;;;9.02;4.45;;;;;;;;;;7344607;19;20016;-80
2024/01/12 21:49:46;;;;;;;9.40;4.80;;;;;;;;;;7350313;19;20444;-81
2024/01/12 21:52:12;;;;;;;10.23;5.03;;;;;;;;;;7357698;19;21058;-79
2024/01/12 21:54:37;;;;;;;11.10;5.55;;;;;;;;;;7353974;19;20387;-78
2024/01/12 21:57:02;;;;;;;10.00;5.03;;;;;;;;;;7345333;19;20463;-77
2024/01/12 21:59:28;;;;;;;9.20;5.07;;;;;;;;;;7356271;19;20299;-81
2024/01/12 22:01:53;;;;;;;12.27;5.85;;;;;;;;;;7315500;19;20012;-82
2024/01/12 22:04:18;;;;;;;7.60;4.28;;;;;;;;;;7342953;19;20010;-82
2024/01/12 22:06:43;;;;;;;10.65;4.90;;;;;;;;;;7347125;19;20026;-81
2024/01/12 22:09:08;;;;;;;7.05;4.20;;;;;;;;;;7354083;19;20002;-76
2024/01/12 22:11:33;;;;;;;6.53;3.70;;;;;;;;;;7347190;19;20011;-82
2024/01/12 22:13:59;;;;;;;8.55;4.93;;;;;;;;;;7348027;19;19999;-76
2024/01/12 22:16:24;;;;;;;9.05;4.40;;;;;;;;;;7344779;19;20003;-81
2024/01/12 22:18:49;;;;;;;9.07;4.78;;;;;;;;;;7343846;19;20002;-81
2024/01/12 22:21:14;;;;;;;8.40;4.70;;;;;;;;;;7348130;19;20014;-78
2024/01/12 22:23:39;;;;;;;8.40;4.53;;;;;;;;;;7353624;19;20450;-78
2024/01/12 22:26:05;;;;;;;8.32;4.38;;;;;;;;;;7355323;19;20768;-77
2024/01/12 22:28:30;;;;;;;8.10;3.80;;;;;;;;;;7336742;19;20402;-80
2024/01/12 22:30:55;;;;;;;7.57;4.07;;;;;;;;;;7355272;19;20344;-80
2024/01/12 22:33:22;;;;;;;7.07;3.53;;;;;;;;;;7343940;19;20724;-78
2024/01/12 22:35:47;;;;;;;7.10;3.60;;;;;;;;;;7354580;19;20291;-80
2024/01/12 22:38:13;;;;;;;7.97;4.28;;;;;;;;;;7347392;19;20013;-76
2024/01/12 22:40:38;;;;;;;7.07;3.83;;;;;;;;;;7354142;19;20034;-81
2024/01/12 22:43:03;;;;;;;7.25;3.92;;;;;;;;;;7358435;19;20275;-76
2024/01/12 22:45:28;;;;;;;6.53;3.58;;;;;;;;;;7334116;19;21007;-79
2024/01/12 22:47:53;;;;;;;7.23;4.10;;;;;;;;;;7336465;19;20011;-78
2024/01/12 22:50:19;;;;;;;7.68;4.03;;;;;;;;;;7354033;19;20267;-80
2024/01/12 22:52:44;;;;;;;7.38;3.70;;;;;;;;;;7344452;19;20285;-75
2024/01/12 22:55:09;;;;;;;10.07;4.53;;;;;;;;;;7350010;19;21055;-77
2024/01/12 22:57:34;;;;;;;8.02;4.18;;;;;;;;;;7339487;19;20332;-83
2024/01/12 22:59:59;;;;;;;7.43;4.25;;;;;;;;;;7351228;19;20441;-83
2024/01/12 23:02:25;;;;;;;8.30;4.63;;;;;;;;;;7337306;19;20013;-80
2024/01/12 23:04:50;;;;;;;9.32;4.90;;;;;;;;;;7329018;19;19999;-83
2024/01/12 23:07:15;;;;;;;9.20;5.05;;;;;;;;;;7348988;19;20354;-79
2024/01/12 23:09:40;;;;;;;7.78;4.65;;;;;;;;;;7351180;19;20017;-81
2024/01/12 23:12:05;;;;;;;8.18;4.80;;;;;;;;;;7355101;19;20623;-75
2024/01/12 23:14:31;;;;;;;10.10;4.72;;;;;;;;;;7350679;19;20934;-80
2024/01/12 23:16:57;;;;;;;7.70;4.32;;;;;;;;;;7340195;19;20011;-81
2024/01/12 23:19:22;;;;;;;9.18;4.80;;;;;;;;;;7329374;19;20006;-77
2024/01/12 23:21:47;;;;;;;7.88;4.40;;;;;;;;;;7334330;19;20436;-79
2024/01/12 23:24:12;;;;;;;8.93;4.60;;;;;;;;;;7358320;19;20029;-77
2024/01/12 23:26:37;;;;;;;8.18;4.10;;;;;;;;;;7358848;19;20786;-80
2024/01/12 23:29:03;;;;;;;7.97;3.58;;;;;;;;;;7360416;19;20750;-82
2024/01/12 23:31:28;;;;;;;7.75;3.95;;;;;;;;;;7316734;19;20031;-77
2024/01/12 23:33:53;;;;;;;8.02;4.20;;;;;;;;;;7338244;19;20031;-79
2024/01/12 23:36:18;;;;;;;7.43;3.67;;;;;;;;;;7361039;19;20360;-76
2024/01/12 23:38:44;;;;;;;9.07;4.65;;;;;;;;;;7359176;19;20469;-82
2024/01/12 23:41:09;;;;;;;7.57;4.57;;;;;;;;;;7356685;19;20272;-79
2024/01/12 23:43:34;;;;;;;10.02;5.70;;;;;;;;;;7362509;19;20018;-78
2024/01/12 23:46:00;;;;;;;8.95;4.95;;;;;;;;;;7336551;19;20002;-83
2024/01/12 23:48:25;;;;;;;11.65;6.55;;;;;;;;;;7352647;19;20014;-75
2024/01/12 23:50:50;;;;;;;10.40;6.45;;;;;;;;;;7357139;19;20037;-80
2024/01/12 23:53:16;;;;;;;11.73;7.78;;;;;;;;;;7353084;19;20448;-77
2024/01/12 23:55:41;;;;;;;14.52;8.23;;;;;;;;;;7362557;19;20006;-81
2024/01/12 23:58:06;;;;;;;13.73;8.13;;;;;;;;;;7359672;19;20023;-77
